• Join FlightAware (Why Join?)
  • Login
  • US Flag 
11:12PM EDT


 

Airport Tracker/Info


-or-


 

Live Flight TrackerFlight Track Log ✈ DAL3926 ✈ 16-Apr-2013 ✈ KMSP - KDLH

Flight Track Log - Related Links

Times and Time Zones

All times are in EDT time to prevent confusion due to time zone crossing. See the DAL3926 flight status page for this flight to view local times or setup timezone preferences in your user account.

Time Position Orientation Groundspeed Altitude Reporting Facility
EDT Latitude Longitude Course Direction KTS MPH feet Rate Location/Type
12:31PM 44.9047 -93.2494 45° Northeast 164 189 2,500  Level FAA TRACON SMA TRACON (SMA)
12:31PM 44.9119 -93.2681 299° West 171 197 3,200 2,220 Climbing FAA TRACON SMA TRACON (SMA)
12:31PM 44.9208 -93.2869 304° West 187 215 4,000 2,520 Climbing FAA TRACON SMA TRACON (SMA)
12:32PM 44.9397 -93.3019 331° Northwest 204 235 4,900 2,400 Climbing FAA TRACON SMA TRACON (SMA)
12:32PM 44.9569 -93.3117 338° Northwest 215 247 5,600 2,100 Climbing FAA TRACON SMA TRACON (SMA)
12:32PM 44.9769 -93.3186 346° North 233 268 6,300 1,920 Climbing FAA TRACON SMA TRACON (SMA)
12:33PM 45.0044 -93.3131 North 260 299 6,900 900 Climbing FAA TRACON SMA TRACON (SMA)
12:33PM 45.0267 -93.3058 13° North 268 308 6,900  Level FAA TRACON SMA TRACON (SMA)
12:33PM 45.0486 -93.2983 14° North 266 306 6,900  Level FAA TRACON SMA TRACON (SMA)
12:34PM 45.1707 -93.3144 45° Northeast  Level FlightAware Approximate
12:34PM 45.0761 -93.2903 12° North 263 303 6,900  Level FAA TRACON SMA TRACON (SMA)
12:34PM 45.0981 -93.2842 11° North 261 300 7,000 420 Climbing FAA TRACON SMA TRACON (SMA)
12:34PM 45.1203 -93.2772 12° North 264 304 7,200 2,160 Climbing FAA TRACON SMA TRACON (SMA)
12:35PM 45.2312 -93.2293 45° Northeast  Level FlightAware Approximate
12:35PM 45.1719 -93.2592 14° North 277 319 9,200  Level FAA TRACON SMA TRACON (SMA)
12:35PM 45.1956 -93.2492 17° North 285 328 9,900 2,460 Climbing FAA TRACON SMA TRACON (SMA)
12:36PM 45.2912 -93.1436 45° Northeast  Level FlightAware Approximate
12:36PM 45.2253 -93.2328 21° North 296 341 10,900  Level FAA TRACON SMA TRACON (SMA)
12:36PM 45.2492 -93.2172 25° Northeast 303 349 11,800 1,620 Climbing FAA TRACON SMA TRACON (SMA)
12:36PM 45.2739 -93.2014 24° Northeast 310 357 12,000 420 Climbing FAA TRACON SMA TRACON (SMA)
12:37PM 45.3078 -93.1806 23° Northeast 336 387 12,100 120 Climbing FAA TRACON SMA TRACON (SMA)
12:37PM 45.3367 -93.1628 23° Northeast 360 414 12,100 -180 Level FAA TRACON SMA TRACON (SMA)
12:37PM 45.3669 -93.1433 24° Northeast 380 437 12,000 -180 Descending FAA TRACON SMA TRACON (SMA)
12:38PM 45.4053 -93.1203 23° Northeast 391 450 12,000  Level FAA TRACON SMA TRACON (SMA)
12:38PM 45.4358 -93.1014 23° Northeast 391 450 12,000  Level FAA TRACON SMA TRACON (SMA)
12:38PM 45.4664 -93.0814 25° Northeast 390 449 12,000  Level FAA TRACON SMA TRACON (SMA)
12:39PM 45.5044 -93.0575 24° Northeast 390 449 12,000  Level FAA TRACON SMA TRACON (SMA)
12:39PM 45.5347 -93.0389 23° Northeast 390 449 12,000  Level FAA TRACON SMA TRACON (SMA)
12:39PM 45.5656 -93.0206 23° Northeast 388 447 12,000  Level FAA TRACON SMA TRACON (SMA)
12:40PM 45.6036 -92.9958 24° Northeast 390 449 12,000  Level FAA TRACON SMA TRACON (SMA)
12:40PM 45.6339 -92.9769 24° Northeast 390 449 12,000  Level FAA TRACON SMA TRACON (SMA)
12:40PM 45.6644 -92.9575 24° Northeast 389 448 12,000  Level FAA TRACON SMA TRACON (SMA)
12:41PM 45.7025 -92.9328 24° Northeast 391 450 12,000  Level FAA TRACON SMA TRACON (SMA)
12:41PM 45.7333 -92.9136 23° Northeast 391 450 12,000  Level FAA TRACON SMA TRACON (SMA)
12:41PM 45.7636 -92.8942 24° Northeast 391 450 12,000  Level FAA TRACON SMA TRACON (SMA)
12:42PM 45.8022 -92.8722 22° Northeast 389 448 12,000  Level FAA TRACON SMA TRACON (SMA)
12:42PM 45.8322 -92.8517 26° Northeast 388 447 12,000  Level FAA TRACON SMA TRACON (SMA)
12:42PM 45.8478 -92.8433 20° North 387 445 12,000 60 Level FAA TRACON SMA TRACON (SMA)
12:43PM 45.9031 -92.8033 27° Northeast 383 441 12,100  Climbing Minneapolis Center
12:44PM 45.9997 -92.7422 24° Northeast 382 440 12,000 -60 Descending Minneapolis Center
12:45PM 46.0964 -92.6822 23° Northeast 381 438 12,000  Level Minneapolis Center
12:46PM 46.2125 -92.6044 25° Northeast 384 442 12,000  Level Minneapolis Center
12:47PM 46.3003 -92.5403 27° Northeast 382 440 12,000 -60 Level Minneapolis Center
12:48PM 46.3906 -92.4572 32° Northeast 383 441 11,900 -540 Descending Minneapolis Center
12:49PM 46.4678 -92.3875 32° Northeast 345 397 10,900 -1,380 Descending Minneapolis Center
12:50PM 46.5350 -92.3267 32° Northeast 300 345 9,100 -1,980 Descending Minneapolis Center
12:51PM 46.6136 -92.2572 31° Northeast 285 328 6,900 -1,980 Descending Minneapolis Center
12:52PM 46.6750 -92.1978 34° Northeast 277 319 5,100 -960 Descending Minneapolis Center
12:53PM 46.7061 -92.1150 61° Northeast 250 288 5,000 -540 Descending Minneapolis Center
12:54PM 46.7442 -92.0403 53° Northeast 238 274 4,000 -1,020 Descending Minneapolis Center
12:55PM 46.8028 -92.0108 19° North 228 262 3,000 -1,020 Descending Minneapolis Center